Elm Springs, South Dakota
Current Conditions -  °F | °C
As of 12:58 AM on Friday 24 Oct 2014 (Local Time) from KRCA Reporting Station
Clear Clear  
Wind Chill: 45°   Ceiling: Unl
Heat Index: 49°   Visibility: 10mi
Dew Point: 33°   Wind: 7mph
Humidity: 55%   Direction: 270°W
Pressure: 29.91"   Gusts: NA
Location:  44.34°N, 102.4°W
Report Text: KRCA 240658Z AUTO 27006KT 10SM CLR 09/01 A2991 RMK AO2 VIS 1 RWY13 SLP124 T00920006 402120023 $
Loading
Personal Weather Stations






























Interactive Weather Map
Tropical Storm Tracking
New forecast layout! Learn more

10-Day Weather Forecast

Advertisements
Track Severe Weather on mobile